KCKV/CKV METAR and TAF weather

Enter ICAO airport designator
Station Type Date Time Source
KCKV METAR 2020/12/05 05:52 UTC NOAA

KCKV 050552Z AUTO 25004KT 10SM CLR 03/02 A3010 RMK AO2 SLP196 T00280017 10056 20022 400830022 58001


Station Type Date Time Source
KCKV Decoded METAR 2020/12/05 05:52 UTC NOAA

CLARKSVILLE OUTLAW FIELD, TN, United States (KCKV) 36-37N 87-25W 165M
Dec 05, 2020 - 12:52 AM EST / 2020.12.05 0552 UTC
Wind: from the WSW (250 degrees) at 5 MPH (4 KT):0
Visibility: 10 mile(s):0
Sky conditions: clear
Temperature: 37.0 F (2.8 C)
Dew Point: 35.1 F (1.7 C)
Relative Humidity: 92%
Pressure (altimeter): 30.1 in. Hg (1019 hPa)
Pressure tendency: 0.00 inches (0.1 hPa) lower than three hours ago
ob: KCKV 050552Z AUTO 25004KT 10SM CLR 03/02 A3010 RMK AO2 SLP196 T00280017 10056 20022 400830022 58001
cycle: 6

Station Type Date Time Source
KCKV TAF 2020/12/05 06:27 UTC NOAA

TAF KCKV 050524Z 0506/0606 VRB04KT P6SM SKC
FM050700 00000KT 4SM BR SKC
FM050900 00000KT 2SM BR SKC
FM051300 31005KT P6SM FEW250

Example: see airport list